Time;durP1;ratioP1;P1;durP2;ratioP2;P2;SDS_P1;SDS_P2;PMS_P1;PMS_P2;Temp;Humidity;BMP_temperature;BMP_pressure;BME280_temperature;BME280_humidity;BME280_pressure;Samples;Min_cycle;Max_cycle;Signal;HPM_P1;HPM_P2
2024/01/07 00:01:46;;;;;;;20.93;11.23;;;-4.50;99.90;;;;;;6065618;23;20205;-86
2024/01/07 00:04:16;;;;;;;20.50;12.50;;;-4.80;99.90;;;;;;6063079;23;20423;-83
2024/01/07 00:06:45;;;;;;;24.53;14.13;;;-4.60;99.90;;;;;;6035786;23;20245;-82
2024/01/07 00:09:13;;;;;;;20.53;10.83;;;-4.80;99.90;;;;;;6067784;23;20189;-84
2024/01/07 00:11:42;;;;;;;22.47;12.60;;;-4.70;99.90;;;;;;6063011;23;20192;-85
2024/01/07 00:14:12;;;;;;;18.17;11.83;;;-4.50;99.90;;;;;;6063169;23;20177;-84
2024/01/07 00:16:41;;;;;;;21.77;13.83;;;-4.80;99.90;;;;;;6063360;23;20207;-82
2024/01/07 00:19:12;;;;;;;20.67;13.30;;;-4.80;99.90;;;;;;6062338;23;20525;-84
2024/01/07 00:21:40;;;;;;;19.43;12.27;;;-4.80;99.90;;;;;;6063273;23;20177;-86
2024/01/07 00:24:12;;;;;;;22.87;14.37;;;-4.80;99.90;;;;;;6062343;23;20158;-85
2024/01/07 00:26:41;;;;;;;15.70;10.70;;;-4.90;99.90;;;;;;6078429;23;20181;-83
2024/01/07 00:29:12;;;;;;;19.57;10.40;;;-4.80;99.90;;;;;;6086567;23;20185;-86
2024/01/07 00:31:40;;;;;;;18.50;8.50;;;-4.80;99.90;;;;;;6086775;23;20262;-86
2024/01/07 00:34:10;;;;;;;18.97;11.20;;;-4.80;99.90;;;;;;6066298;23;20178;-83
2024/01/07 00:36:39;;;;;;;21.50;12.77;;;-4.80;99.90;;;;;;6066258;23;20178;-83
2024/01/07 00:39:09;;;;;;;21.57;11.27;;;-4.70;99.90;;;;;;6076411;23;20188;-82
2024/01/07 00:41:37;;;;;;;17.50;10.77;;;-4.90;99.90;;;;;;6042153;23;20186;-82
2024/01/07 00:44:06;;;;;;;22.13;13.67;;;-4.90;99.90;;;;;;6070159;23;20165;-84
2024/01/07 00:46:36;;;;;;;18.33;10.83;;;-4.90;99.90;;;;;;6065829;23;20213;-84
2024/01/07 00:49:05;;;;;;;23.70;14.50;;;-4.90;99.90;;;;;;6065451;23;20564;-84
2024/01/07 00:51:33;;;;;;;12.27;9.13;;;-4.90;99.90;;;;;;6065208;23;20616;-83
2024/01/07 00:54:02;;;;;;;21.23;12.83;;;-4.90;99.90;;;;;;6064001;23;20185;-86
2024/01/07 00:56:31;;;;;;;26.23;14.63;;;-5.00;99.90;;;;;;6062452;23;20950;-85
2024/01/07 00:59:01;;;;;;;24.10;14.47;;;-5.00;99.90;;;;;;6065073;23;20236;-81
2024/01/07 01:01:30;;;;;;;21.73;12.17;;;-4.90;99.90;;;;;;6064771;23;20197;-82
2024/01/07 01:04:00;;;;;;;16.20;11.07;;;-5.10;99.90;;;;;;6066584;23;20161;-82
2024/01/07 01:06:29;;;;;;;33.43;17.57;;;-5.10;99.90;;;;;;6066669;23;20180;-84
2024/01/07 01:08:58;;;;;;;25.30;14.43;;;-5.10;99.90;;;;;;6061661;23;20189;-85
2024/01/07 01:11:27;;;;;;;25.10;15.13;;;-5.10;99.90;;;;;;6060623;23;20206;-83
2024/01/07 01:13:56;;;;;;;26.63;15.03;;;-5.10;99.90;;;;;;6061499;23;20482;-81
2024/01/07 01:16:24;;;;;;;26.43;15.30;;;-5.10;99.90;;;;;;6050261;23;20365;-85
2024/01/07 01:18:53;;;;;;;23.97;14.07;;;-5.20;99.90;;;;;;6065561;23;20548;-86
2024/01/07 01:21:23;;;;;;;26.53;15.87;;;-5.20;99.90;;;;;;6060649;23;20445;-86
2024/01/07 01:23:52;;;;;;;27.87;15.93;;;-5.10;99.90;;;;;;6062158;23;20573;-85
2024/01/07 01:26:21;;;;;;;20.10;12.63;;;-5.20;99.90;;;;;;6060131;23;20609;-85
2024/01/07 01:28:50;;;;;;;23.73;14.17;;;-5.10;99.90;;;;;;6061990;23;20245;-84
2024/01/07 01:31:19;;;;;;;23.73;14.33;;;-5.10;99.90;;;;;;6060097;23;20240;-82
2024/01/07 01:33:48;;;;;;;20.00;11.70;;;-5.10;99.90;;;;;;6059843;23;20244;-85
2024/01/07 01:36:16;;;;;;;20.83;12.37;;;-4.90;99.90;;;;;;6059499;23;20924;-84
2024/01/07 01:38:48;;;;;;;22.03;11.87;;;-5.10;99.90;;;;;;6061418;23;20511;-83
2024/01/07 01:41:17;;;;;;;22.70;13.13;;;-5.10;99.90;;;;;;6058516;23;20679;-84
2024/01/07 01:43:46;;;;;;;19.90;12.70;;;-5.10;99.90;;;;;;6063293;23;20617;-83
2024/01/07 01:46:15;;;;;;;24.20;13.73;;;-5.10;99.90;;;;;;6062380;23;20617;-80
2024/01/07 01:48:44;;;;;;;19.67;12.37;;;-4.90;99.90;;;;;;6072106;23;20641;-84
2024/01/07 01:51:13;;;;;;;19.73;11.40;;;-5.00;99.90;;;;;;6058987;23;20546;-83
2024/01/07 01:53:42;;;;;;;18.73;12.33;;;-5.00;99.90;;;;;;6061497;23;20625;-84
2024/01/07 01:56:12;;;;;;;20.67;11.77;;;-5.00;99.90;;;;;;6059139;23;20185;-85
2024/01/07 01:58:41;;;;;;;21.73;12.00;;;-5.10;99.90;;;;;;6060315;23;20680;-84
2024/01/07 02:01:10;;;;;;;17.63;9.80;;;-5.10;99.90;;;;;;6065200;23;20198;-83
2024/01/07 02:03:39;;;;;;;19.07;9.73;;;-5.10;99.90;;;;;;6074409;23;20183;-83
2024/01/07 02:06:08;;;;;;;19.10;11.90;;;-5.00;99.90;;;;;;6062491;23;20162;-85
2024/01/07 02:08:36;;;;;;;22.77;13.30;;;-5.00;99.90;;;;;;6062974;23;20185;-83
2024/01/07 02:11:21;;;;;;;18.57;13.03;;;-4.90;99.90;;;;;;6060751;23;20253;-83
2024/01/07 02:13:50;;;;;;;19.67;12.90;;;-4.90;99.90;;;;;;6052846;23;20190;-85
2024/01/07 02:16:19;;;;;;;23.73;13.80;;;-4.90;99.90;;;;;;6060890;23;20656;-83
2024/01/07 02:18:48;;;;;;;21.47;12.97;;;-4.70;99.90;;;;;;6064291;23;20497;-85
2024/01/07 02:21:16;;;;;;;21.40;13.07;;;-4.90;99.90;;;;;;6062688;23;20265;-82
2024/01/07 02:23:46;;;;;;;18.87;13.30;;;-4.80;99.90;;;;;;6066491;23;20225;-83
2024/01/07 02:26:16;;;;;;;21.47;13.17;;;-4.70;99.90;;;;;;6067529;23;20201;-84
2024/01/07 02:28:45;;;;;;;16.60;9.77;;;-4.80;99.90;;;;;;6068470;23;20494;-83
2024/01/07 02:31:13;;;;;;;19.23;12.33;;;-4.80;99.90;;;;;;6069463;23;20460;-83
2024/01/07 02:33:42;;;;;;;20.03;12.63;;;-4.80;99.90;;;;;;6073792;23;20181;-83
2024/01/07 02:36:11;;;;;;;15.50;10.03;;;-4.80;99.90;;;;;;6073361;23;20177;-84
2024/01/07 02:38:39;;;;;;;12.83;8.17;;;-4.80;99.90;;;;;;6066531;23;20613;-82
2024/01/07 02:41:07;;;;;;;18.97;12.10;;;-4.80;99.90;;;;;;6060079;23;20194;-87
2024/01/07 02:43:38;;;;;;;15.70;9.60;;;-4.80;99.90;;;;;;6068114;23;20162;-83
2024/01/07 02:46:07;;;;;;;14.37;10.10;;;-4.80;99.90;;;;;;6092443;23;20181;-84
2024/01/07 02:48:36;;;;;;;11.03;7.00;;;-4.80;99.90;;;;;;6068310;23;20374;-84
2024/01/07 02:51:05;;;;;;;18.10;9.47;;;-4.80;99.90;;;;;;6071989;23;20189;-84
2024/01/07 02:53:35;;;;;;;16.37;9.67;;;-4.90;99.90;;;;;;6085114;23;20166;-85
2024/01/07 02:56:04;;;;;;;16.40;10.53;;;-4.90;99.90;;;;;;6087922;23;20198;-85
2024/01/07 02:58:37;;;;;;;16.13;10.30;;;-4.90;99.90;;;;;;6067319;23;20162;-84
2024/01/07 03:01:11;;;;;;;17.43;11.77;;;-4.90;99.90;;;;;;6078741;23;20198;-84
2024/01/07 03:03:40;;;;;;;17.33;11.47;;;-5.00;99.90;;;;;;6086160;23;20161;-81
2024/01/07 03:06:08;;;;;;;19.60;11.67;;;-5.00;99.90;;;;;;6074944;23;20700;-85
2024/01/07 03:08:37;;;;;;;19.43;11.87;;;-5.10;99.90;;;;;;6064471;23;20182;-83
2024/01/07 03:11:06;;;;;;;17.23;11.70;;;-5.10;99.90;;;;;;6065321;23;20268;-84
2024/01/07 03:13:37;;;;;;;19.43;12.37;;;-5.20;99.90;;;;;;6065913;23;20198;-82
2024/01/07 03:16:07;;;;;;;19.13;11.23;;;-5.30;99.90;;;;;;6063055;23;20162;-84
2024/01/07 03:18:36;;;;;;;20.67;12.47;;;-5.30;99.90;;;;;;6062890;23;20232;-83
2024/01/07 03:21:05;;;;;;;16.90;10.67;;;-5.10;99.90;;;;;;6063448;23;20191;-85
2024/01/07 03:23:34;;;;;;;16.73;11.87;;;-5.30;99.90;;;;;;6061051;23;20188;-85
2024/01/07 03:26:03;;;;;;;10.90;7.60;;;-5.40;99.90;;;;;;6065478;23;20197;-85
2024/01/07 03:28:31;;;;;;;15.70;11.27;;;-5.40;99.90;;;;;;6063002;23;20299;-84
2024/01/07 03:31:05;;;;;;;17.37;11.50;;;-5.50;99.90;;;;;;6062030;23;20177;-82
2024/01/07 03:33:34;;;;;;;16.40;11.47;;;-5.50;99.90;;;;;;6074222;23;20173;-84
2024/01/07 03:36:07;;;;;;;16.53;11.27;;;-5.50;99.90;;;;;;6076628;23;20177;-85
2024/01/07 03:38:36;;;;;;;14.73;9.77;;;-5.50;99.90;;;;;;6061025;23;20162;-84
2024/01/07 03:41:05;;;;;;;17.13;10.77;;;-5.50;99.90;;;;;;6072144;23;20181;-84
2024/01/07 03:43:34;;;;;;;15.10;10.47;;;-5.50;99.90;;;;;;6076386;23;20173;-82
2024/01/07 03:46:04;;;;;;;18.47;12.47;;;-5.50;99.90;;;;;;6076920;23;20178;-82
2024/01/07 03:48:33;;;;;;;17.47;11.10;;;-5.50;99.90;;;;;;6072747;23;20408;-84
2024/01/07 03:51:02;;;;;;;20.60;11.37;;;-5.50;99.90;;;;;;6082888;23;20162;-85
2024/01/07 03:53:31;;;;;;;18.07;11.27;;;-5.50;99.90;;;;;;6073928;23;20422;-82
2024/01/07 03:55:59;;;;;;;16.10;9.93;;;-5.60;99.90;;;;;;6063348;23;20165;-85
2024/01/07 03:58:28;;;;;;;18.43;11.97;;;-5.40;99.90;;;;;;6060478;23;20299;-83
2024/01/07 04:00:56;;;;;;;19.50;11.50;;;-5.60;99.90;;;;;;6061571;23;20185;-83
2024/01/07 04:03:27;;;;;;;16.07;8.87;;;-5.50;99.90;;;;;;6062595;23;20166;-85
2024/01/07 04:05:55;;;;;;;17.27;9.87;;;-5.60;99.90;;;;;;6051149;23;20217;-84
2024/01/07 04:08:24;;;;;;;20.90;12.57;;;-5.60;99.90;;;;;;6058979;23;20976;-83
2024/01/07 04:10:52;;;;;;;19.63;12.30;;;-5.60;99.90;;;;;;6063129;23;20185;-82
2024/01/07 04:13:21;;;;;;;16.77;11.77;;;-5.40;99.90;;;;;;6060089;23;20173;-82
2024/01/07 04:15:50;;;;;;;18.40;12.07;;;-5.60;99.90;;;;;;6064314;23;20176;-82
2024/01/07 04:18:19;;;;;;;19.53;12.10;;;-5.60;99.90;;;;;;6063162;23;20162;-84
2024/01/07 04:20:49;;;;;;;17.23;11.77;;;-5.60;99.90;;;;;;6065860;23;20209;-84
2024/01/07 04:23:18;;;;;;;19.37;12.27;;;-5.60;99.90;;;;;;6063361;23;20177;-85
2024/01/07 04:25:47;;;;;;;18.97;12.60;;;-5.50;99.90;;;;;;6061783;23;20169;-85
2024/01/07 04:28:16;;;;;;;18.50;12.33;;;-5.50;99.90;;;;;;6063329;23;20184;-84
2024/01/07 04:30:44;;;;;;;15.20;11.27;;;-5.50;99.90;;;;;;6064711;23;20170;-82
2024/01/07 04:33:14;;;;;;;17.93;12.00;;;-5.50;99.90;;;;;;6082323;23;20188;-83
2024/01/07 04:35:43;;;;;;;16.20;10.70;;;-5.60;99.90;;;;;;6083122;23;20177;-82
2024/01/07 04:38:13;;;;;;;19.53;11.90;;;-5.60;99.90;;;;;;6085019;23;20162;-84
2024/01/07 04:40:42;;;;;;;19.73;12.63;;;-5.60;99.90;;;;;;6084942;23;20472;-83
2024/01/07 04:43:10;;;;;;;17.57;11.73;;;-5.90;99.90;;;;;;6084337;23;20166;-82
2024/01/07 04:45:39;;;;;;;19.33;12.07;;;-5.60;99.90;;;;;;6070055;23;20182;-82
2024/01/07 04:48:09;;;;;;;17.80;11.93;;;-5.60;99.90;;;;;;6062645;23;20189;-87
2024/01/07 04:50:38;;;;;;;17.93;11.07;;;-5.40;99.90;;;;;;6065624;23;20638;-83
2024/01/07 04:53:07;;;;;;;13.27;9.40;;;-5.60;99.90;;;;;;6073429;23;20184;-85
2024/01/07 04:55:37;;;;;;;18.20;11.27;;;-5.60;99.90;;;;;;6066296;23;20609;-83
2024/01/07 04:58:06;;;;;;;16.83;10.53;;;-5.60;99.90;;;;;;6082359;23;20181;-85
2024/01/07 05:00:35;;;;;;;12.20;7.70;;;-5.60;99.90;;;;;;6088185;23;20424;-85
2024/01/07 05:03:06;;;;;;;17.47;11.13;;;-5.70;99.90;;;;;;6080637;23;20170;-84
2024/01/07 05:05:36;;;;;;;17.83;11.90;;;-5.70;99.90;;;;;;6087413;23;20178;-81
2024/01/07 05:08:05;;;;;;;16.10;10.63;;;-5.70;99.90;;;;;;6088357;23;20189;-84
2024/01/07 05:10:33;;;;;;;16.00;10.57;;;-5.80;99.90;;;;;;6080677;23;20189;-81
2024/01/07 05:13:05;;;;;;;16.20;11.23;;;-5.70;99.90;;;;;;6064636;23;20706;-82
2024/01/07 05:15:34;;;;;;;14.73;9.87;;;-5.80;99.90;;;;;;6065910;23;20269;-83
2024/01/07 05:18:03;;;;;;;16.20;10.30;;;-5.70;99.90;;;;;;6072817;23;20457;-83
2024/01/07 05:20:32;;;;;;;15.83;11.37;;;-5.70;99.90;;;;;;6070268;23;20241;-84
2024/01/07 05:23:00;;;;;;;16.40;10.97;;;-5.50;99.90;;;;;;6028475;23;20684;-81
2024/01/07 05:25:30;;;;;;;16.37;10.00;;;-5.70;99.90;;;;;;6061068;23;20507;-83
2024/01/07 05:27:59;;;;;;;16.13;10.83;;;-5.70;99.90;;;;;;6064324;23;20184;-84
2024/01/07 05:30:29;;;;;;;19.33;10.73;;;-5.70;99.90;;;;;;6062679;23;20181;-84
2024/01/07 05:32:58;;;;;;;16.47;10.97;;;-5.70;99.90;;;;;;6031520;23;20201;-83
2024/01/07 05:35:27;;;;;;;14.27;9.97;;;-5.50;99.90;;;;;;6063383;23;20288;-83
2024/01/07 05:37:55;;;;;;;17.53;11.17;;;-5.70;99.90;;;;;;6053494;23;20178;-85
2024/01/07 05:40:25;;;;;;;17.47;10.80;;;-5.70;99.90;;;;;;6033238;23;20189;-83
2024/01/07 05:42:53;;;;;;;18.97;11.00;;;-5.70;99.90;;;;;;6084222;23;20217;-84
2024/01/07 05:45:22;;;;;;;14.20;10.33;;;-5.80;99.90;;;;;;6089285;23;20353;-86
2024/01/07 05:47:52;;;;;;;15.13;10.60;;;-5.80;99.90;;;;;;6080623;23;20180;-83
2024/01/07 05:50:21;;;;;;;19.17;11.40;;;-5.80;99.90;;;;;;6078718;23;20169;-82
2024/01/07 05:52:53;;;;;;;16.90;10.17;;;-5.80;99.90;;;;;;6079546;23;20186;-85
2024/01/07 05:55:22;;;;;;;14.93;10.17;;;-5.80;99.90;;;;;;6071217;23;20169;-82
2024/01/07 05:57:50;;;;;;;13.10;9.43;;;-5.80;99.90;;;;;;6062215;23;20172;-83
2024/01/07 06:00:19;;;;;;;15.83;9.17;;;-5.70;99.90;;;;;;6053011;23;20567;-83
2024/01/07 06:02:48;;;;;;;12.43;9.57;;;-5.90;99.90;;;;;;6067849;23;20312;-84
2024/01/07 06:05:19;;;;;;;16.43;10.10;;;-5.90;99.90;;;;;;6069963;23;20193;-84
2024/01/07 06:07:48;;;;;;;17.13;10.33;;;-6.00;99.90;;;;;;6057877;23;20471;-86
2024/01/07 06:10:17;;;;;;;11.73;7.00;;;-6.00;99.90;;;;;;6062910;23;20185;-83
2024/01/07 06:12:45;;;;;;;11.37;7.97;;;-6.00;99.90;;;;;;6061147;23;20185;-84
2024/01/07 06:15:14;;;;;;;16.67;10.93;;;-6.00;99.90;;;;;;6064013;23;20170;-85
2024/01/07 06:17:43;;;;;;;16.70;10.80;;;-5.90;99.90;;;;;;6061779;23;20182;-85
2024/01/07 06:20:12;;;;;;;16.97;10.97;;;-6.00;99.90;;;;;;6055081;23;20170;-82
2024/01/07 06:22:43;;;;;;;13.07;7.83;;;-6.00;99.90;;;;;;6063760;23;20264;-82
2024/01/07 06:25:11;;;;;;;11.90;7.53;;;-6.00;99.90;;;;;;6054399;23;20381;-84
2024/01/07 06:27:41;;;;;;;18.80;11.80;;;-6.00;99.90;;;;;;6062742;23;20185;-83
2024/01/07 06:30:10;;;;;;;18.63;11.23;;;-6.00;99.90;;;;;;6066983;23;20774;-82
2024/01/07 06:32:39;;;;;;;14.33;9.43;;;-6.00;99.90;;;;;;6064968;23;20217;-84
2024/01/07 06:35:09;;;;;;;16.73;11.27;;;-6.00;99.90;;;;;;6066063;23;20177;-80
2024/01/07 06:37:38;;;;;;;17.40;11.43;;;-6.00;99.90;;;;;;6064726;23;20281;-82
2024/01/07 06:40:11;;;;;;;19.53;11.73;;;-5.90;99.90;;;;;;6064522;23;20198;-82
2024/01/07 06:42:40;;;;;;;11.70;8.60;;;-5.90;99.90;;;;;;6064001;23;20448;-84
2024/01/07 06:45:10;;;;;;;19.03;11.90;;;-5.90;99.90;;;;;;6064186;23;20185;-82
2024/01/07 06:47:40;;;;;;;16.47;11.70;;;-5.90;99.90;;;;;;6041079;23;20384;-86
2024/01/07 06:50:10;;;;;;;17.90;11.47;;;-5.90;99.90;;;;;;6086282;23;20161;-85
2024/01/07 06:52:39;;;;;;;17.60;11.27;;;-5.80;99.90;;;;;;6084057;23;20551;-86
2024/01/07 06:55:10;;;;;;;16.67;9.27;;;-5.80;99.90;;;;;;6074418;23;20469;-84
2024/01/07 06:57:39;;;;;;;17.43;10.80;;;-5.80;99.90;;;;;;6082465;23;20169;-84
2024/01/07 07:00:09;;;;;;;13.43;9.63;;;-5.80;99.90;;;;;;6086787;23;20235;-86
2024/01/07 07:02:39;;;;;;;15.83;10.43;;;-5.80;99.90;;;;;;6076689;23;20204;-83
2024/01/07 07:05:09;;;;;;;14.93;10.10;;;-5.80;99.90;;;;;;6068579;23;20192;-83
2024/01/07 07:07:38;;;;;;;17.57;10.63;;;-5.80;99.90;;;;;;6064733;23;20185;-83
2024/01/07 07:10:09;;;;;;;12.27;8.13;;;-5.70;99.90;;;;;;6065435;23;20201;-83
2024/01/07 07:12:38;;;;;;;16.20;10.67;;;-5.70;99.90;;;;;;6065428;23;20162;-84
2024/01/07 07:15:09;;;;;;;12.70;8.37;;;-5.70;99.90;;;;;;6057261;23;20184;-83
2024/01/07 07:17:40;;;;;;;14.60;9.93;;;-5.70;99.90;;;;;;6063428;23;20179;-83
2024/01/07 07:20:09;;;;;;;16.93;10.13;;;-5.70;99.90;;;;;;6062176;23;20178;-83
2024/01/07 07:22:39;;;;;;;19.03;10.10;;;-5.70;99.90;;;;;;6023279;23;20224;-82
2024/01/07 07:25:09;;;;;;;14.93;9.97;;;-5.70;99.90;;;;;;6061309;23;20240;-84
2024/01/07 07:27:38;;;;;;;14.20;9.73;;;-5.70;99.90;;;;;;6059989;23;20187;-82
2024/01/07 07:30:08;;;;;;;14.73;9.80;;;-5.60;99.90;;;;;;6065066;23;20818;-85
2024/01/07 07:32:41;;;;;;;14.80;9.83;;;-5.60;99.90;;;;;;6061726;23;20181;-82
2024/01/07 07:35:11;;;;;;;13.27;7.83;;;-5.50;99.90;;;;;;6062515;23;20170;-85
2024/01/07 07:37:40;;;;;;;9.13;5.97;;;-5.60;99.90;;;;;;6061524;23;20177;-84
2024/01/07 07:40:12;;;;;;;13.03;9.53;;;-5.60;99.90;;;;;;6063074;23;20182;-85
2024/01/07 07:42:43;;;;;;;14.37;8.93;;;-5.70;99.90;;;;;;6061325;23;20522;-85
2024/01/07 07:45:12;;;;;;;13.13;9.30;;;-5.60;99.90;;;;;;6065383;23;20227;-87
2024/01/07 07:47:44;;;;;;;9.37;6.40;;;-5.60;99.90;;;;;;6083616;23;20349;-85
2024/01/07 07:50:13;;;;;;;5.33;4.37;;;-5.60;99.90;;;;;;6086266;23;20166;-83
2024/01/07 07:52:43;;;;;;;13.50;8.63;;;-5.60;99.90;;;;;;6086065;23;20309;-84
2024/01/07 07:55:13;;;;;;;13.50;9.97;;;-5.60;99.90;;;;;;6088537;23;20153;-85
2024/01/07 07:57:41;;;;;;;10.57;6.13;;;-5.60;99.90;;;;;;6089148;23;20185;-86
2024/01/07 08:00:12;;;;;;;15.37;9.17;;;-5.60;99.90;;;;;;6089101;23;20157;-84
2024/01/07 08:02:41;;;;;;;12.83;7.03;;;-5.50;99.50;;;;;;6087012;23;20200;-85
2024/01/07 08:05:10;;;;;;;16.13;8.90;;;-5.50;99.60;;;;;;6087498;23;20243;-83
2024/01/07 08:07:39;;;;;;;10.23;6.87;;;-5.40;99.90;;;;;;6089179;23;20150;-84
2024/01/07 08:10:09;;;;;;;14.90;9.47;;;-5.30;99.10;;;;;;6088414;23;20521;-82
2024/01/07 08:12:39;;;;;;;15.77;9.73;;;-5.40;99.20;;;;;;6089345;23;20181;-85
2024/01/07 08:15:09;;;;;;;9.43;7.33;;;-5.40;98.30;;;;;;6079197;23;20191;-86
2024/01/07 08:17:40;;;;;;;11.13;7.87;;;-5.40;97.90;;;;;;6089591;23;20170;-84
2024/01/07 08:20:10;;;;;;;16.53;9.77;;;-5.40;98.20;;;;;;6089680;23;20173;-84
2024/01/07 08:22:39;;;;;;;11.00;8.23;;;-5.40;98.70;;;;;;6086074;23;20267;-87
2024/01/07 08:25:09;;;;;;;15.80;9.97;;;-5.30;99.10;;;;;;6087698;23;20680;-84
2024/01/07 08:27:41;;;;;;;14.50;9.83;;;-5.20;98.70;;;;;;6087237;23;20176;-85
2024/01/07 08:30:12;;;;;;;16.57;10.73;;;-5.20;97.20;;;;;;6088755;23;20182;-85
2024/01/07 08:32:42;;;;;;;12.13;8.53;;;-5.20;97.70;;;;;;6087844;23;20370;-83
2024/01/07 08:35:11;;;;;;;10.83;6.93;;;-5.30;96.80;;;;;;6087217;23;20165;-84
2024/01/07 08:37:40;;;;;;;6.17;4.87;;;-5.30;97.80;;;;;;6075365;23;20166;-86
2024/01/07 08:40:09;;;;;;;9.87;7.13;;;-5.20;97.30;;;;;;6065537;23;20178;-84
2024/01/07 08:42:42;;;;;;;11.00;6.97;;;-5.20;96.30;;;;;;6065231;23;20170;-84
2024/01/07 08:45:11;;;;;;;7.63;5.63;;;-5.30;96.50;;;;;;6064428;23;20435;-82
2024/01/07 08:47:40;;;;;;;8.00;5.53;;;-5.00;96.20;;;;;;6072381;23;20177;-85
2024/01/07 08:50:12;;;;;;;13.07;8.67;;;-5.20;96.50;;;;;;6069166;23;20177;-84
2024/01/07 08:52:41;;;;;;;15.23;9.13;;;-5.10;96.60;;;;;;6068363;23;20185;-85
2024/01/07 08:55:10;;;;;;;16.07;10.10;;;-5.00;97.60;;;;;;6066250;23;20170;-82
2024/01/07 08:57:41;;;;;;;12.43;9.50;;;-4.90;97.40;;;;;;6067036;23;20173;-86
2024/01/07 09:00:11;;;;;;;8.20;5.67;;;-4.90;96.20;;;;;;6072255;23;20200;-85
2024/01/07 09:02:40;;;;;;;15.23;10.30;;;-4.90;95.60;;;;;;6073273;23;20177;-83
2024/01/07 09:05:12;;;;;;;12.43;7.50;;;-4.90;95.80;;;;;;6067975;23;20562;-85
2024/01/07 09:07:41;;;;;;;11.00;7.60;;;-4.90;96.50;;;;;;6061401;23;20178;-84
2024/01/07 09:10:11;;;;;;;13.77;9.70;;;-4.90;96.20;;;;;;6058633;23;20170;-85
2024/01/07 09:12:42;;;;;;;14.47;9.03;;;-5.10;96.00;;;;;;6060527;23;20704;-84
2024/01/07 09:15:11;;;;;;;14.90;8.73;;;-5.00;97.50;;;;;;6059668;23;20181;-84
2024/01/07 09:17:40;;;;;;;17.03;10.53;;;-5.00;96.20;;;;;;6062895;23;20173;-86
2024/01/07 09:20:09;;;;;;;14.57;9.90;;;-5.00;96.40;;;;;;6063414;23;20220;-85
2024/01/07 09:22:39;;;;;;;16.23;9.83;;;-5.00;96.70;;;;;;6061421;23;20678;-86
2024/01/07 09:25:08;;;;;;;12.97;8.50;;;-5.00;95.70;;;;;;6065316;23;20645;-82
2024/01/07 09:27:37;;;;;;;15.53;10.13;;;-5.00;96.30;;;;;;6062388;23;20569;-82
2024/01/07 09:30:10;;;;;;;14.57;9.67;;;-5.10;96.00;;;;;;6063768;23;20166;-84
2024/01/07 09:32:39;;;;;;;14.33;9.50;;;-5.10;96.90;;;;;;6063311;23;20166;-85
2024/01/07 09:35:08;;;;;;;12.33;8.63;;;-5.00;96.10;;;;;;6060410;23;20233;-84
2024/01/07 09:37:40;;;;;;;18.13;11.10;;;-5.10;95.70;;;;;;6060775;23;20287;-84
2024/01/07 09:40:10;;;;;;;18.33;10.77;;;-5.10;96.20;;;;;;6058247;23;20570;-85
2024/01/07 09:42:39;;;;;;;16.90;10.87;;;-5.10;96.30;;;;;;6063773;23;20176;-84
2024/01/07 09:45:14;;;;;;;16.43;10.57;;;-5.10;96.80;;;;;;6084587;23;20205;-85
2024/01/07 09:47:45;;;;;;;13.47;9.50;;;-5.10;96.40;;;;;;6072722;23;20176;-87
2024/01/07 09:50:16;;;;;;;14.90;10.03;;;-5.00;95.60;;;;;;6074753;23;20586;-80
2024/01/07 09:52:46;;;;;;;14.30;10.07;;;-4.90;96.30;;;;;;6066337;23;20184;-82
2024/01/07 09:55:23;;;;;;;11.73;8.30;;;-5.10;96.60;;;;;;6079873;23;20191;-84
2024/01/07 09:57:52;;;;;;;12.03;7.60;;;-5.10;96.40;;;;;;6083470;23;20209;-84
2024/01/07 10:00:22;;;;;;;14.53;10.13;;;-5.20;96.80;;;;;;6075432;23;20229;-85
2024/01/07 10:02:51;;;;;;;14.27;9.70;;;-5.20;98.00;;;;;;6060461;23;20624;-84
2024/01/07 10:05:19;;;;;;;11.37;6.87;;;-5.10;96.50;;;;;;6060344;23;20288;-87
2024/01/07 10:07:48;;;;;;;14.57;10.40;;;-5.20;95.70;;;;;;6062470;23;20189;-85
2024/01/07 10:10:17;;;;;;;9.77;6.97;;;-5.00;97.10;;;;;;6060576;23;20205;-85
2024/01/07 10:12:47;;;;;;;14.23;10.63;;;-5.10;96.20;;;;;;6061360;23;20185;-83
2024/01/07 10:15:16;;;;;;;14.97;9.53;;;-5.10;97.10;;;;;;6060306;23;20193;-86
2024/01/07 10:17:48;;;;;;;15.47;10.10;;;-5.00;96.70;;;;;;6060660;23;20182;-85
2024/01/07 10:20:19;;;;;;;15.73;7.70;;;-4.90;96.20;;;;;;6062728;23;20170;-85
2024/01/07 10:22:51;;;;;;;10.53;7.57;;;-4.90;95.80;;;;;;6063230;23;20170;-83
2024/01/07 10:25:20;;;;;;;8.07;5.77;;;-4.90;94.20;;;;;;6063210;23;20404;-84
2024/01/07 10:27:49;;;;;;;6.93;5.13;;;-5.00;92.60;;;;;;6063612;23;20174;-85
2024/01/07 10:30:18;;;;;;;6.77;4.77;;;-4.70;93.60;;;;;;6062459;23;20617;-87
2024/01/07 10:32:49;;;;;;;7.90;4.50;;;-4.90;93.00;;;;;;6064823;23;20170;-85
2024/01/07 10:35:22;;;;;;;10.70;7.70;;;-4.80;93.40;;;;;;6059126;23;20166;-86
2024/01/07 10:37:51;;;;;;;14.70;9.67;;;-4.70;94.70;;;;;;6062108;23;20576;-85
2024/01/07 10:40:20;;;;;;;16.07;10.20;;;-4.80;96.60;;;;;;6063426;23;20190;-85
2024/01/07 10:42:50;;;;;;;18.07;11.70;;;-4.80;95.90;;;;;;6085348;23;20173;-82
2024/01/07 10:45:19;;;;;;;18.10;12.00;;;-4.80;96.50;;;;;;6086617;23;20268;-85
2024/01/07 10:47:51;;;;;;;17.73;10.87;;;-4.80;95.80;;;;;;6076303;23;20559;-84
2024/01/07 10:50:21;;;;;;;16.73;11.17;;;-4.90;95.60;;;;;;6065589;23;20559;-84
2024/01/07 10:52:52;;;;;;;19.87;10.47;;;-4.90;96.30;;;;;;6071885;23;20505;-84
2024/01/07 10:55:23;;;;;;;13.67;10.03;;;-4.90;97.40;;;;;;6072994;23;20495;-85
2024/01/07 10:57:54;;;;;;;14.63;10.43;;;-5.00;96.80;;;;;;6075074;23;20170;-84
2024/01/07 11:00:24;;;;;;;22.20;12.07;;;-5.10;96.80;;;;;;6054445;23;20185;-85
2024/01/07 11:03:03;;;;;;;14.00;9.00;;;-5.10;98.70;;;;;;6064137;23;20256;-85
2024/01/07 11:05:38;;;;;;;17.60;11.43;;;-5.00;98.30;;;;;;6062892;23;20189;-82
2024/01/07 11:08:14;;;;;;;18.43;10.80;;;-5.10;97.30;;;;;;6060478;23;20622;-85
2024/01/07 11:10:49;;;;;;;12.37;7.93;;;-5.00;98.10;;;;;;6025171;23;20174;-85
2024/01/07 11:13:35;;;;;;;18.17;11.67;;;-5.10;97.50;;;;;;6059763;23;20432;-85
2024/01/07 11:16:04;;;;;;;10.80;8.07;;;-5.00;98.80;;;;;;6061401;23;20185;-86
2024/01/07 11:18:35;;;;;;;12.80;8.50;;;-5.00;96.80;;;;;;6061239;23;20177;-84
2024/01/07 11:21:05;;;;;;;7.73;6.20;;;-4.90;96.90;;;;;;6059768;23;20181;-85
2024/01/07 11:23:37;;;;;;;10.40;7.10;;;-5.00;94.20;;;;;;6063572;23;20617;-85
2024/01/07 11:26:06;;;;;;;8.33;6.80;;;-5.00;93.60;;;;;;6062408;23;20189;-85
2024/01/07 11:28:45;;;;;;;4.43;4.03;;;-5.10;93.20;;;;;;6084050;23;20172;-86
2024/01/07 11:31:14;;;;;;;7.93;4.17;;;-4.80;92.90;;;;;;6086295;23;20173;-85
2024/01/07 11:33:46;;;;;;;7.03;5.10;;;-5.00;92.70;;;;;;6067385;23;20640;-83
2024/01/07 11:36:16;;;;;;;7.87;6.77;;;-5.00;93.30;;;;;;6049434;23;20795;-84
2024/01/07 11:38:46;;;;;;;11.00;7.30;;;-5.00;93.70;;;;;;6067218;23;20181;-84
2024/01/07 11:41:19;;;;;;;14.20;8.97;;;-4.90;93.40;;;;;;6070665;23;20187;-86
2024/01/07 11:43:58;;;;;;;9.77;7.40;;;-4.80;94.20;;;;;;6081839;23;20170;-85
2024/01/07 11:46:34;;;;;;;11.67;8.43;;;-4.80;93.20;;;;;;6059975;23;20217;-83
2024/01/07 11:49:04;;;;;;;8.27;5.87;;;-4.60;93.80;;;;;;6059606;23;20237;-83
2024/01/07 11:51:35;;;;;;;9.77;7.90;;;-4.80;93.80;;;;;;6061116;23;20711;-84
2024/01/07 11:54:04;;;;;;;12.97;6.10;;;-4.90;93.70;;;;;;6061040;23;20166;-86
2024/01/07 11:56:33;;;;;;;10.97;7.13;;;-5.00;93.50;;;;;;6064680;23;20487;-85
2024/01/07 11:59:06;;;;;;;9.60;7.13;;;-5.10;94.20;;;;;;6044626;23;20173;-86
2024/01/07 12:01:34;;;;;;;11.03;8.37;;;-4.90;94.20;;;;;;6082387;23;20181;-84
2024/01/07 12:04:07;;;;;;;14.47;8.93;;;-5.10;94.20;;;;;;6076636;23;20617;-83
2024/01/07 12:06:36;;;;;;;6.57;5.33;;;-5.00;94.20;;;;;;6067038;23;20227;-83
2024/01/07 12:09:05;;;;;;;13.33;8.70;;;-5.00;93.70;;;;;;6071991;23;20186;-86
2024/01/07 12:11:34;;;;;;;14.27;9.80;;;-5.30;94.00;;;;;;6074256;23;20188;-83
2024/01/07 12:14:04;;;;;;;10.47;8.07;;;-5.20;94.10;;;;;;6070155;23;20221;-86
2024/01/07 12:16:32;;;;;;;9.27;6.97;;;-5.10;94.40;;;;;;6062128;23;20756;-84
2024/01/07 12:19:01;;;;;;;12.77;9.27;;;-5.10;92.90;;;;;;6066568;23;20197;-85
2024/01/07 12:21:32;;;;;;;10.97;8.20;;;-5.00;94.10;;;;;;6077186;23;20438;-86
2024/01/07 12:24:02;;;;;;;8.30;6.37;;;-5.10;92.60;;;;;;6074639;23;20170;-86
2024/01/07 12:26:32;;;;;;;8.43;6.23;;;-5.30;92.40;;;;;;6068212;23;20490;-85
2024/01/07 12:29:04;;;;;;;7.97;6.57;;;-5.30;92.60;;;;;;6037393;23;20241;-85
2024/01/07 12:31:33;;;;;;;8.77;4.80;;;-5.40;92.40;;;;;;6063991;23;20170;-85
2024/01/07 12:34:04;;;;;;;9.37;6.03;;;-5.40;92.10;;;;;;6072764;23;20192;-86
2024/01/07 12:36:35;;;;;;;12.50;6.57;;;-5.40;91.50;;;;;;6071905;23;20487;-84
2024/01/07 12:39:05;;;;;;;11.73;8.90;;;-5.40;92.60;;;;;;6066183;23;20551;-83
2024/01/07 12:41:34;;;;;;;13.33;10.00;;;-5.20;93.10;;;;;;6062648;23;20213;-85
2024/01/07 12:44:03;;;;;;;16.00;11.23;;;-5.20;92.80;;;;;;6067930;23;20190;-85
2024/01/07 12:46:32;;;;;;;12.57;9.53;;;-5.00;92.10;;;;;;6067211;23;20190;-84